Time;durP1;ratioP1;P1;durP2;ratioP2;P2;SDS_P1;SDS_P2;PMS_P1;PMS_P2;Temp;Humidity;BMP_temperature;BMP_pressure;BME280_temperature;BME280_humidity;BME280_pressure;Samples;Min_cycle;Max_cycle;Signal;HPM_P1;HPM_P2
2022/09/23 00:01:07;;;;;;;3.78;2.80;;;;;;;22.21;46.24;101619.69;5011076;28;20046;-73
2022/09/23 00:03:37;;;;;;;4.18;3.33;;;;;;;22.21;46.23;101617.00;5012093;28;20050;-73
2022/09/23 00:06:09;;;;;;;3.70;2.67;;;;;;;22.23;46.33;101610.63;5013889;28;20057;-73
2022/09/23 00:08:38;;;;;;;4.22;3.25;;;;;;;22.22;46.17;101617.84;5014154;28;20050;-73
2022/09/23 00:11:09;;;;;;;3.30;2.78;;;;;;;22.22;46.22;101617.84;5013678;28;20046;-74
2022/09/23 00:13:38;;;;;;;4.93;2.78;;;;;;;22.21;46.20;101613.44;5013996;28;20057;-73
2022/09/23 00:16:08;;;;;;;5.15;3.08;;;;;;;22.21;46.17;101613.44;5013878;28;20050;-74
2022/09/23 00:18:36;;;;;;;4.10;2.90;;;;;;;22.20;46.15;101620.69;5014243;28;20053;-73
2022/09/23 00:21:05;;;;;;;7.78;3.15;;;;;;;22.20;46.21;101620.69;5013340;28;20050;-73
2022/09/23 00:23:33;;;;;;;3.72;2.40;;;;;;;22.20;46.24;101612.59;5012917;28;20050;-73
2022/09/23 00:26:02;;;;;;;4.68;2.92;;;;;;;22.20;46.18;101618.00;5014085;28;20042;-73
2022/09/23 00:28:30;;;;;;;3.33;2.78;;;;;;;22.20;46.20;101612.59;5013462;28;20366;-73
2022/09/23 00:31:05;;;;;;;3.35;2.60;;;;;;;22.19;46.29;101610.88;5013485;28;20493;-72
2022/09/23 00:33:33;;;;;;;3.65;2.90;;;;;;;22.20;46.31;101618.00;5013574;28;20081;-73
2022/09/23 00:36:02;;;;;;;4.25;2.72;;;;;;;22.20;46.16;101615.31;5013434;28;20473;-73
2022/09/23 00:38:29;;;;;;;4.68;2.60;;;;;;;22.19;46.24;101616.25;5013173;28;20046;-73
2022/09/23 00:40:57;;;;;;;5.07;2.92;;;;;;;22.19;46.27;101605.47;5013436;28;20049;-73
2022/09/23 00:43:37;;;;;;;3.85;2.97;;;;;;;22.19;46.12;101613.56;5013300;28;20046;-73
2022/09/23 00:46:07;;;;;;;3.83;3.03;;;;;;;22.20;46.16;101617.13;5013389;28;20045;-73
2022/09/23 00:48:38;;;;;;;3.70;3.00;;;;;;;22.19;46.21;101612.72;5013636;28;20052;-73
2022/09/23 00:51:08;;;;;;;5.15;3.10;;;;;;;22.19;46.08;101604.63;5013473;28;20053;-73
2022/09/23 00:53:37;;;;;;;4.55;2.95;;;;;;;22.18;46.21;101606.47;5058386;28;20052;-73
2022/09/23 00:56:09;;;;;;;4.70;2.95;;;;;;;22.18;46.19;101609.16;5116868;28;20040;-73
2022/09/23 00:58:40;;;;;;;4.32;2.95;;;;;;;22.19;46.24;101607.31;5069222;28;20050;-74
2022/09/23 01:01:08;;;;;;;3.40;3.08;;;;;;;22.18;46.16;101598.38;5013339;28;20077;-73
2022/09/23 01:03:35;;;;;;;4.45;2.88;;;;;;;22.18;46.16;101603.78;5013451;28;20050;-73
2022/09/23 01:06:04;;;;;;;4.03;2.92;;;;;;;22.17;46.05;101602.06;5013382;28;20042;-73
2022/09/23 01:08:31;;;;;;;4.45;2.97;;;;;;;22.16;46.21;101597.66;5013206;28;20046;-73
2022/09/23 01:11:23;;;;;;;4.03;2.92;;;;;;;22.17;46.11;101598.53;5012777;28;20053;-74
2022/09/23 01:14:17;;;;;;;6.82;3.22;;;;;;;22.17;46.16;101602.06;5012568;28;20045;-73
2022/09/23 01:17:08;;;;;;;4.57;3.28;;;;;;;22.15;46.18;101593.25;5013369;28;20053;-73
2022/09/23 01:20:05;;;;;;;5.40;2.90;;;;;;;22.16;46.09;101592.28;5013202;28;20050;-74
2022/09/23 01:22:48;;;;;;;4.32;3.28;;;;;;;22.15;46.09;101587.84;5016891;28;20054;-74
2022/09/23 01:25:31;;;;;;;4.55;2.97;;;;;;;22.14;46.00;101588.84;5012557;28;20042;-74
2022/09/23 01:28:20;;;;;;;4.90;2.72;;;;;;;22.16;45.97;101588.69;5013370;28;20405;-73
2022/09/23 01:31:13;;;;;;;3.92;2.90;;;;;;;22.14;46.09;101596.94;5013088;28;20508;-74
2022/09/23 01:34:11;;;;;;;3.50;3.00;;;;;;;22.14;46.16;101588.84;5012620;28;20046;-74
2022/09/23 01:36:45;;;;;;;5.03;2.80;;;;;;;22.14;46.10;101591.53;5022420;28;20061;-73
2022/09/23 01:39:29;;;;;;;3.95;2.75;;;;;;;22.15;46.07;101601.34;5064757;28;20399;-74
2022/09/23 01:42:35;;;;;;;4.65;2.95;;;;;;;22.13;46.00;101591.69;5115692;28;20475;-73
2022/09/23 01:45:27;;;;;;;4.95;3.22;;;;;;;22.14;46.12;101593.38;5115677;28;20066;-73
2022/09/23 01:48:12;;;;;;;5.80;3.10;;;;;;;22.14;46.01;101591.53;5115780;28;20059;-72
2022/09/23 01:50:58;;;;;;;4.03;2.90;;;;;;;22.14;46.06;101588.84;5116022;28;20055;-73
2022/09/23 01:53:31;;;;;;;3.53;2.70;;;;;;;22.13;46.10;101592.53;5115449;28;20047;-73
2022/09/23 01:56:06;;;;;;;7.25;3.08;;;;;;;22.14;46.11;101590.69;5115580;28;20040;-73
2022/09/23 01:59:00;;;;;;;3.88;3.17;;;;;;;22.13;46.01;101597.06;5070212;28;20211;-74
2022/09/23 02:01:50;;;;;;;5.00;3.38;;;;;;;22.13;46.08;101594.38;5012786;28;20477;-74
2022/09/23 02:04:56;;;;;;;3.85;2.50;;;;;;;22.13;46.07;101594.38;5052737;28;20068;-74
2022/09/23 02:07:36;;;;;;;3.67;2.95;;;;;;;22.13;46.03;101599.78;5012975;28;20054;-73
2022/09/23 02:10:17;;;;;;;4.82;2.85;;;;;;;22.13;46.00;101597.94;5013041;28;20065;-73
2022/09/23 02:12:51;;;;;;;3.70;2.83;;;;;;;22.13;46.08;101597.94;5013311;28;20084;-73
2022/09/23 02:15:22;;;;;;;4.15;2.80;;;;;;;22.11;46.00;101594.47;5012963;28;20057;-73
2022/09/23 02:17:55;;;;;;;4.43;3.30;;;;;;;22.10;46.14;101584.66;5012726;28;20073;-73
2022/09/23 02:20:28;;;;;;;3.83;2.72;;;;;;;22.11;46.04;101594.47;5012698;28;20058;-73
2022/09/23 02:23:02;;;;;;;3.97;2.95;;;;;;;22.11;46.08;101586.38;5008588;28;20054;-73
2022/09/23 02:25:51;;;;;;;5.32;2.90;;;;;;;22.10;46.03;101584.66;4992123;28;20058;-73
2022/09/23 02:28:27;;;;;;;3.42;2.75;;;;;;;22.10;46.07;101584.66;4993427;28;20069;-73
2022/09/23 02:31:07;;;;;;;5.38;2.85;;;;;;;22.10;46.04;101581.97;4992997;28;20058;-73
2022/09/23 02:33:42;;;;;;;3.40;2.88;;;;;;;22.10;46.05;101581.97;4992797;28;20062;-73
2022/09/23 02:36:26;;;;;;;3.13;2.20;;;;;;;22.10;45.87;101578.41;4993040;28;20059;-73
2022/09/23 02:39:13;;;;;;;4.47;2.80;;;;;;;22.09;46.02;101580.28;4992626;28;20158;-73
2022/09/23 02:42:01;;;;;;;6.63;3.33;;;;;;;22.09;45.88;101576.72;4980331;28;20070;-73
2022/09/23 02:44:29;;;;;;;7.00;2.90;;;;;;;22.10;45.91;101570.34;4973534;28;20051;-73
2022/09/23 02:46:56;;;;;;;4.00;2.70;;;;;;;22.10;45.98;101575.72;4991974;28;20050;-73
2022/09/23 02:49:26;;;;;;;5.07;3.00;;;;;;;22.10;45.95;101575.72;4992270;28;20046;-73
2022/09/23 02:51:55;;;;;;;4.20;3.08;;;;;;;22.09;45.80;101576.72;4990359;28;20058;-73
2022/09/23 02:54:27;;;;;;;4.88;2.85;;;;;;;22.08;45.96;101572.28;5038342;28;20043;-73
2022/09/23 02:56:56;;;;;;;3.10;2.45;;;;;;;22.08;46.10;101575.00;5114968;28;20046;-73
2022/09/23 02:59:23;;;;;;;4.30;3.03;;;;;;;22.07;45.95;101578.69;5033443;28;20492;-73
2022/09/23 03:02:12;;;;;;;5.80;2.50;;;;;;;22.07;45.86;101579.53;5011270;28;20049;-73
2022/09/23 03:04:52;;;;;;;3.63;2.72;;;;;;;22.07;45.89;101579.53;5011259;28;20050;-73
2022/09/23 03:07:42;;;;;;;4.25;3.08;;;;;;;22.07;45.88;101576.84;5011462;28;20050;-73
2022/09/23 03:10:23;;;;;;;3.67;2.50;;;;;;;22.06;45.79;101567.03;5011127;28;20046;-73
2022/09/23 03:13:00;;;;;;;4.63;3.35;;;;;;;22.06;45.80;101569.75;5011692;28;20054;-73
2022/09/23 03:15:45;;;;;;;3.22;2.58;;;;;;;22.06;45.86;101566.19;5011031;28;20046;-73
2022/09/23 03:18:22;;;;;;;4.75;2.80;;;;;;;22.06;45.81;101566.19;5011175;28;20054;-73
2022/09/23 03:20:57;;;;;;;3.78;3.03;;;;;;;22.06;45.74;101567.03;5011022;28;20056;-73
2022/09/23 03:23:35;;;;;;;5.20;3.00;;;;;;;22.05;45.80;101568.03;5011029;28;20054;-73
2022/09/23 03:26:39;;;;;;;3.50;2.60;;;;;;;22.04;45.76;101569.03;5009132;28;20038;-73
2022/09/23 03:29:10;;;;;;;4.50;2.60;;;;;;;22.06;45.77;101566.19;5051740;28;20422;-73
2022/09/23 03:31:39;;;;;;;3.63;2.60;;;;;;;22.05;45.68;101559.94;5051301;28;20057;-73
2022/09/23 03:34:17;;;;;;;4.40;2.47;;;;;;;22.04;45.74;101560.94;5051109;28;20541;-73
2022/09/23 03:37:10;;;;;;;3.22;2.28;;;;;;;22.04;45.87;101557.38;5052186;28;20053;-73
2022/09/23 03:40:09;;;;;;;3.63;2.85;;;;;;;22.04;45.60;101565.44;5055363;28;20156;-73
2022/09/23 03:42:37;;;;;;;4.18;2.83;;;;;;;22.04;45.72;101557.38;5055360;28;20057;-74
2022/09/23 03:45:11;;;;;;;4.10;2.83;;;;;;;22.04;45.82;101562.75;5055554;28;20080;-72
2022/09/23 03:47:39;;;;;;;3.83;2.47;;;;;;;22.04;45.75;101569.03;5038786;28;20408;-74
2022/09/23 03:50:06;;;;;;;3.63;2.97;;;;;;;22.04;45.73;101562.75;5055019;28;20068;-74
2022/09/23 03:52:34;;;;;;;5.20;2.65;;;;;;;22.03;45.81;101559.22;5055845;28;20053;-74
2022/09/23 03:55:01;;;;;;;3.67;2.70;;;;;;;22.03;45.81;101566.44;5055086;28;20450;-73
2022/09/23 03:57:28;;;;;;;3.35;2.53;;;;;;;22.03;45.71;101567.28;5054991;28;20056;-73
2022/09/23 03:59:55;;;;;;;4.50;2.50;;;;;;;22.03;45.70;101563.75;5035443;28;20057;-73
2022/09/23 04:02:23;;;;;;;4.07;2.60;;;;;;;22.02;45.72;101565.59;5027878;28;20054;-73
2022/09/23 04:04:50;;;;;;;6.50;2.97;;;;;;;22.02;45.63;101564.75;4993962;28;20413;-73
2022/09/23 04:07:18;;;;;;;3.33;2.92;;;;;;;22.03;46.01;101563.75;4993305;28;20053;-73
2022/09/23 04:09:45;;;;;;;3.30;2.50;;;;;;;22.01;45.71;101555.81;4994060;28;20054;-72
2022/09/23 04:12:15;;;;;;;4.95;2.60;;;;;;;22.01;45.78;101553.09;4994107;28;20477;-73
2022/09/23 04:14:42;;;;;;;2.97;2.33;;;;;;;22.02;45.80;101560.19;4994884;28;20490;-73
2022/09/23 04:17:10;;;;;;;3.95;2.38;;;;;;;22.02;45.71;101554.81;4993941;28;20054;-73
2022/09/23 04:19:38;;;;;;;4.45;3.00;;;;;;;22.01;45.62;101555.81;4994106;28;20397;-73
2022/09/23 04:22:06;;;;;;;6.60;2.75;;;;;;;22.00;45.70;101554.09;4993825;28;20478;-73
2022/09/23 04:24:33;;;;;;;3.60;2.85;;;;;;;22.00;45.70;101551.41;4995152;28;20046;-73
2022/09/23 04:27:01;;;;;;;5.25;2.60;;;;;;;22.00;45.69;101551.41;5006965;28;20061;-73
2022/09/23 04:29:28;;;;;;;3.65;2.53;;;;;;;21.98;45.56;101547.97;4994041;28;20046;-74
2022/09/23 04:31:56;;;;;;;3.20;2.60;;;;;;;21.99;45.65;101552.38;4994025;28;20053;-73
2022/09/23 04:34:24;;;;;;;4.93;2.92;;;;;;;21.98;45.67;101548.81;4992739;28;20058;-73
2022/09/23 04:36:51;;;;;;;3.63;2.88;;;;;;;21.98;45.62;101547.97;4994072;28;20409;-73
2022/09/23 04:39:18;;;;;;;2.92;2.47;;;;;;;21.97;45.67;101547.13;4993793;28;20054;-73
2022/09/23 04:41:46;;;;;;;3.72;2.65;;;;;;;21.97;45.62;101543.56;4993271;28;20054;-73
2022/09/23 04:44:14;;;;;;;3.30;2.55;;;;;;;21.96;45.60;101540.03;4993626;28;20047;-73
2022/09/23 04:46:45;;;;;;;5.13;2.83;;;;;;;21.97;45.74;101548.97;4993293;28;20591;-73
2022/09/23 04:49:14;;;;;;;7.00;2.72;;;;;;;21.96;45.38;101553.50;4992563;28;20073;-73
2022/09/23 04:51:42;;;;;;;2.75;2.35;;;;;;;21.96;45.56;101549.97;4993430;28;20046;-73
2022/09/23 04:54:11;;;;;;;5.32;2.70;;;;;;;21.95;45.57;101557.16;4994087;28;20057;-73
2022/09/23 04:56:38;;;;;;;3.85;2.85;;;;;;;21.95;45.60;101549.06;5091051;28;20058;-73
2022/09/23 04:59:06;;;;;;;2.75;2.35;;;;;;;21.96;45.63;101552.66;5047833;28;20069;-73
2022/09/23 05:01:35;;;;;;;4.38;2.88;;;;;;;21.94;45.61;101547.38;5013448;28;20389;-73
2022/09/23 05:04:09;;;;;;;7.22;2.88;;;;;;;21.94;45.70;101546.53;5013543;28;20053;-73
2022/09/23 05:06:37;;;;;;;4.35;2.38;;;;;;;21.95;45.55;101542.84;5013199;28;20042;-72
2022/09/23 05:09:06;;;;;;;4.30;2.92;;;;;;;21.95;45.68;101553.63;5012649;28;20058;-73
2022/09/23 05:11:34;;;;;;;5.32;2.83;;;;;;;21.94;45.65;101541.13;5013033;28;20057;-73
2022/09/23 05:14:02;;;;;;;4.07;2.53;;;;;;;21.94;45.62;101557.31;5012855;28;20049;-73
2022/09/23 05:16:29;;;;;;;3.63;2.55;;;;;;;21.94;45.58;101557.31;5012862;28;20493;-73
2022/09/23 05:18:57;;;;;;;4.65;2.85;;;;;;;21.93;45.49;101556.47;5013040;28;20050;-73
2022/09/23 05:21:27;;;;;;;3.08;2.75;;;;;;;21.93;45.72;101555.59;5012825;28;20386;-73
2022/09/23 05:23:59;;;;;;;5.10;2.72;;;;;;;21.93;45.57;101556.47;5013288;28;20061;-73
2022/09/23 05:26:29;;;;;;;4.93;3.22;;;;;;;21.92;45.63;101557.47;5012553;28;20373;-73
2022/09/23 05:28:57;;;;;;;6.00;2.78;;;;;;;21.93;45.69;101561.00;5012470;28;20513;-73
2022/09/23 05:31:27;;;;;;;3.25;2.53;;;;;;;21.93;45.50;101567.25;5012247;28;20050;-73
2022/09/23 05:33:57;;;;;;;3.30;2.53;;;;;;;21.92;45.58;101562.00;5012236;28;20054;-73
2022/09/23 05:36:27;;;;;;;6.07;2.85;;;;;;;21.92;45.60;101562.00;5012694;28;20049;-72
2022/09/23 05:38:55;;;;;;;3.35;2.78;;;;;;;21.92;45.57;101565.53;5012652;28;20038;-73
2022/09/23 05:41:24;;;;;;;5.10;2.92;;;;;;;21.92;45.47;101567.38;5105283;28;20043;-73
2022/09/23 05:43:52;;;;;;;5.25;3.30;;;;;;;21.91;45.53;101565.66;5115997;28;20051;-73
2022/09/23 05:46:22;;;;;;;4.35;2.95;;;;;;;21.91;45.46;101562.97;5115364;28;20146;-73
2022/09/23 05:48:50;;;;;;;4.18;2.88;;;;;;;21.91;45.44;101565.66;5115899;28;20047;-73
2022/09/23 05:51:23;;;;;;;4.28;3.17;;;;;;;21.91;45.43;101557.56;5115392;28;20406;-73
2022/09/23 05:53:58;;;;;;;4.63;3.05;;;;;;;21.90;45.45;101562.09;5116132;28;20043;-73
2022/09/23 05:56:27;;;;;;;5.40;2.95;;;;;;;21.90;45.45;101562.09;5113765;28;20129;-73
2022/09/23 05:58:56;;;;;;;3.67;3.28;;;;;;;21.90;45.61;101564.81;5055449;28;20046;-72
2022/09/23 06:01:26;;;;;;;4.95;2.85;;;;;;;21.90;45.59;101561.25;5011391;28;20488;-73
2022/09/23 06:03:56;;;;;;;3.40;2.83;;;;;;;21.89;45.53;101563.09;5012690;28;20049;-73
2022/09/23 06:06:27;;;;;;;3.45;2.80;;;;;;;21.90;45.44;101572.03;5012995;28;20504;-73
2022/09/23 06:08:55;;;;;;;5.32;3.53;;;;;;;21.91;45.41;101568.34;5012269;28;20057;-73
2022/09/23 06:11:23;;;;;;;4.07;2.83;;;;;;;21.90;45.39;101566.66;5011760;28;20045;-73
2022/09/23 06:13:54;;;;;;;4.38;3.00;;;;;;;21.90;45.35;101569.34;5012019;28;20054;-73
2022/09/23 06:16:21;;;;;;;4.35;2.88;;;;;;;21.91;45.24;101569.19;5011891;28;20049;-73
2022/09/23 06:18:49;;;;;;;3.95;3.10;;;;;;;21.89;45.35;101573.03;5011918;28;20046;-73
2022/09/23 06:21:17;;;;;;;4.07;2.95;;;;;;;21.91;45.31;101562.97;5011310;28;20519;-73
2022/09/23 06:23:45;;;;;;;3.58;2.70;;;;;;;21.90;45.18;101564.81;5011081;28;20065;-73
2022/09/23 06:26:14;;;;;;;3.65;3.00;;;;;;;21.91;45.07;101562.97;5011468;28;20485;-73
2022/09/23 06:28:43;;;;;;;4.50;3.47;;;;;;;21.90;45.14;101559.41;4998278;28;20039;-73
2022/09/23 06:31:14;;;;;;;3.70;2.70;;;;;;;21.91;45.48;101560.25;4991735;28;20058;-73
2022/09/23 06:33:43;;;;;;;8.02;4.05;;;;;;;21.90;43.83;101563.94;4992190;28;20046;-73
2022/09/23 06:36:12;;;;;;;6.28;4.72;;;;;;;21.83;43.14;101546.59;4991927;28;20053;-73
2022/09/23 06:38:51;;;;;;;7.68;4.32;;;;;;;21.80;43.37;101554.97;4992698;28;20054;-74
2022/09/23 06:41:19;;;;;;;6.57;4.20;;;;;;;21.79;43.30;101556.75;5012336;28;20056;-74
2022/09/23 06:43:47;;;;;;;4.55;4.00;;;;;;;21.77;43.42;101549.81;5011262;28;20046;-73
2022/09/23 06:46:15;;;;;;;5.10;4.40;;;;;;;21.77;43.22;101549.81;5011191;28;20042;-72
2022/09/23 06:48:43;;;;;;;4.07;3.67;;;;;;;21.77;43.54;101547.97;5010361;28;20046;-73
2022/09/23 06:51:20;;;;;;;4.95;3.95;;;;;;;21.77;43.05;101557.91;5011052;28;20049;-72
2022/09/23 06:53:48;;;;;;;6.07;4.22;;;;;;;21.77;42.90;101558.75;5011461;28;20053;-73
2022/09/23 06:56:16;;;;;;;6.65;4.00;;;;;;;21.78;42.86;101551.53;5032261;28;20048;-73
2022/09/23 06:58:45;;;;;;;7.00;3.90;;;;;;;21.78;42.74;101548.81;5082840;28;20050;-73
2022/09/23 07:01:17;;;;;;;12.43;3.97;;;;;;;21.79;43.33;101545.13;5114369;28;20047;-73
2022/09/23 07:03:47;;;;;;;;;;;;;;;21.78;43.13;101546.97;5088492;28;20046;-74
2022/09/23 07:06:15;;;;;;;7.50;4.20;;;;;;;21.80;42.98;101555.81;5114686;28;19927;-75
2022/09/23 07:08:45;;;;;;;5.95;4.20;;;;;;;21.79;42.85;101558.63;5114845;28;20051;-72
2022/09/23 07:11:14;;;;;;;6.63;3.70;;;;;;;21.80;42.88;101558.50;5114076;28;20047;-73
2022/09/23 07:13:42;;;;;;;7.80;4.22;;;;;;;21.83;42.88;101557.38;5113761;28;20043;-74
2022/09/23 07:16:10;;;;;;;6.35;3.97;;;;;;;21.82;42.62;101559.22;5113766;28;20048;-74
2022/09/23 07:18:38;;;;;;;4.30;3.90;;;;;;;21.82;42.70;101561.06;5104449;28;20039;-75
2022/09/23 07:21:13;;;;;;;6.45;4.13;;;;;;;21.81;42.46;101564.75;5010795;28;20046;-73
2022/09/23 07:23:46;;;;;;;5.57;4.10;;;;;;;21.81;42.47;101562.91;5010849;28;20049;-73
2022/09/23 07:26:15;;;;;;;5.10;3.70;;;;;;;21.82;42.57;101571.84;5011051;28;20046;-73
2022/09/23 07:28:42;;;;;;;4.53;3.78;;;;;;;21.83;42.79;101574.38;5010777;28;20525;-75
2022/09/23 07:31:13;;;;;;;6.78;5.13;;;;;;;21.83;42.41;101570.84;4994696;28;20509;-74
2022/09/23 07:33:42;;;;;;;6.03;4.43;;;;;;;21.84;42.70;101575.28;5008510;28;20057;-74
2022/09/23 07:36:13;;;;;;;7.43;5.07;;;;;;;21.84;42.49;101576.13;5010940;28;20041;-73
2022/09/23 07:38:40;;;;;;;6.53;4.25;;;;;;;21.84;42.74;101584.22;5010745;28;20053;-73
2022/09/23 07:41:15;;;;;;;6.53;4.88;;;;;;;21.84;42.60;101578.81;5010837;28;20374;-74
2022/09/23 07:43:44;;;;;;;6.20;4.07;;;;;;;21.86;42.63;101582.22;5009682;28;20397;-74
2022/09/23 07:46:16;;;;;;;5.15;4.10;;;;;;;21.87;42.38;101583.06;5011343;28;20046;-76
2022/09/23 07:48:44;;;;;;;6.38;4.25;;;;;;;21.88;42.36;101582.97;5011036;28;20042;-75
2022/09/23 07:51:17;;;;;;;4.85;4.28;;;;;;;21.89;42.70;101576.56;5010490;28;20042;-76
2022/09/23 07:53:50;;;;;;;4.67;4.27;;;;;;;21.90;42.75;101582.81;5010915;28;20046;-73
2022/09/23 07:56:18;;;;;;;;;;;;;;;21.92;42.68;101587.09;5010900;28;20046;-76
2022/09/23 07:58:58;;;;;;;11.32;4.53;;;;;;;21.91;42.96;101585.38;5023020;28;19925;-74
2022/09/23 08:01:30;;;;;;;6.00;5.40;;;;;;;21.91;42.76;101589.91;5113750;28;20105;-74
2022/09/23 08:04:07;;;;;;;5.78;4.82;;;;;;;21.91;42.83;101584.53;5114053;28;20044;-74
2022/09/23 08:06:40;;;;;;;5.50;4.50;;;;;;;21.91;42.96;101585.38;5113740;28;20054;-73
2022/09/23 08:09:08;;;;;;;7.78;5.07;;;;;;;21.92;42.94;101586.25;5146565;27;20039;-74
2022/09/23 08:11:38;;;;;;;9.52;4.32;;;;;;;21.92;43.16;101587.09;5113626;28;20065;-74
2022/09/23 08:14:06;;;;;;;7.40;4.00;;;;;;;21.94;43.15;101581.56;5113037;28;20039;-74
2022/09/23 08:16:34;;;;;;;5.32;4.07;;;;;;;21.94;42.87;101586.97;5113437;28;20486;-75
2022/09/23 08:19:02;;;;;;;5.65;3.95;;;;;;;21.93;42.70;101585.25;5114060;28;20074;-75
2022/09/23 08:21:35;;;;;;;6.75;3.97;;;;;;;21.93;42.82;101585.25;5113454;28;20039;-74
2022/09/23 08:24:02;;;;;;;6.63;3.80;;;;;;;21.94;42.86;101581.56;5115684;28;20568;-74
2022/09/23 08:26:33;;;;;;;4.18;3.40;;;;;;;21.95;43.09;101580.59;5116849;28;20401;-74
2022/09/23 08:29:01;;;;;;;4.55;3.00;;;;;;;21.95;42.61;101575.19;5117532;28;20044;-74
2022/09/23 08:31:28;;;;;;;4.88;3.55;;;;;;;21.97;42.56;101576.78;5117311;28;20047;-74
2022/09/23 08:33:57;;;;;;;3.42;2.78;;;;;;;21.97;42.04;101573.22;5149489;27;20048;-75
2022/09/23 08:36:25;;;;;;;3.83;2.72;;;;;;;21.98;42.32;101574.94;5116666;28;20043;-75
2022/09/23 08:38:52;;;;;;;5.15;3.10;;;;;;;21.98;41.74;101577.63;5117104;28;20047;-75
2022/09/23 08:41:27;;;;;;;6.47;3.17;;;;;;;21.99;41.92;101573.94;5116242;28;20043;-74
2022/09/23 08:44:19;;;;;;;6.05;3.00;;;;;;;21.98;41.88;101574.94;5115675;28;20048;-75
2022/09/23 08:46:53;;;;;;;6.50;2.75;;;;;;;22.00;41.85;101572.09;5116844;28;20050;-74
2022/09/23 08:49:47;;;;;;;4.18;3.05;;;;;;;21.99;42.63;101571.25;5115725;28;20044;-74
2022/09/23 08:52:32;;;;;;;5.25;2.90;;;;;;;22.01;43.46;101580.06;5116517;28;20044;-74
2022/09/23 08:55:01;;;;;;;4.03;2.90;;;;;;;22.01;43.25;101569.28;5116229;28;20043;-74
2022/09/23 08:57:58;;;;;;;4.10;2.83;;;;;;;22.01;42.85;101569.28;5116626;28;20055;-74
2022/09/23 09:01:09;;;;;;;5.78;2.95;;;;;;;22.01;42.36;101566.59;5116077;28;20105;-74
2022/09/23 09:04:01;;;;;;;3.15;2.60;;;;;;;22.02;42.92;101562.03;5116096;28;20044;-74
2022/09/23 09:06:36;;;;;;;4.47;3.15;;;;;;;22.03;42.33;101569.16;5108881;28;20060;-74
2022/09/23 09:09:31;;;;;;;3.10;2.60;;;;;;;22.00;42.52;101564.88;5115073;28;20479;-74
2022/09/23 09:12:10;;;;;;;4.07;2.47;;;;;;;21.99;42.71;101565.84;5116091;28;20494;-74
2022/09/23 09:15:06;;;;;;;3.22;2.30;;;;;;;22.01;42.69;101560.34;5116043;28;20052;-74
2022/09/23 09:17:47;;;;;;;4.65;2.45;;;;;;;22.00;42.91;101546.00;5110605;28;20066;-74
2022/09/23 09:20:17;;;;;;;2.50;2.17;;;;;;;22.02;43.49;101553.97;5113874;28;20482;-74
2022/09/23 09:22:48;;;;;;;3.80;2.58;;;;;;;22.01;43.60;101545.03;5115205;28;20040;-74
2022/09/23 09:25:41;;;;;;;3.03;2.25;;;;;;;22.01;43.78;101542.31;5116258;28;20043;-74
2022/09/23 09:28:18;;;;;;;4.30;2.30;;;;;;;22.02;43.62;101549.41;5115874;28;20051;-74
2022/09/23 09:30:51;;;;;;;3.92;2.25;;;;;;;22.01;43.81;101539.63;5116591;28;20051;-75
2022/09/23 09:33:27;;;;;;;3.10;2.58;;;;;;;22.02;43.47;101544.03;5115941;28;20399;-75
2022/09/23 09:35:57;;;;;;;5.50;2.70;;;;;;;22.02;43.40;101537.78;5115390;28;20044;-75
2022/09/23 09:38:26;;;;;;;5.30;2.50;;;;;;;22.02;43.20;101532.38;5115737;28;20044;-75
2022/09/23 09:40:59;;;;;;;3.20;2.40;;;;;;;22.03;42.81;101542.19;5115797;28;20048;-75
2022/09/23 09:43:26;;;;;;;4.30;2.47;;;;;;;22.03;43.04;101545.72;5115982;28;20051;-75
2022/09/23 09:46:12;;;;;;;3.45;2.38;;;;;;;22.04;43.18;101541.19;5115956;28;20047;-75
2022/09/23 09:49:00;;;;;;;4.40;2.85;;;;;;;22.04;43.12;101527.69;5115957;28;20368;-75
2022/09/23 09:51:28;;;;;;;3.83;2.58;;;;;;;22.03;42.53;101532.25;5115666;28;20510;-75
2022/09/23 09:54:16;;;;;;;3.10;2.40;;;;;;;22.04;42.66;101541.19;5115402;28;20070;-75
2022/09/23 09:56:44;;;;;;;4.53;2.20;;;;;;;22.03;43.07;101537.63;5115830;28;20054;-75
2022/09/23 09:59:19;;;;;;;3.70;2.40;;;;;;;22.04;42.49;101535.78;5115710;28;20047;-75
2022/09/23 10:01:46;;;;;;;4.65;2.60;;;;;;;22.03;41.93;101540.34;5115613;28;20048;-75
2022/09/23 10:04:32;;;;;;;5.75;2.25;;;;;;;22.03;42.09;101529.56;5113609;28;20056;-75
2022/09/23 10:07:23;;;;;;;3.20;2.30;;;;;;;22.03;42.22;101534.94;5115749;28;20055;-75
2022/09/23 10:09:51;;;;;;;5.00;2.58;;;;;;;22.03;42.08;101521.47;5115791;28;20055;-75
2022/09/23 10:12:21;;;;;;;2.45;2.10;;;;;;;22.04;41.74;101535.78;5115354;28;20047;-76
2022/09/23 10:14:59;;;;;;;4.97;2.55;;;;;;;22.04;41.54;101516.91;5115850;28;20046;-75
2022/09/23 10:17:35;;;;;;;2.92;2.42;;;;;;;22.03;41.45;101516.06;5115592;28;20055;-76
2022/09/23 10:20:07;;;;;;;3.65;2.50;;;;;;;22.03;41.52;101513.38;5115440;28;20044;-75
2022/09/23 10:22:37;;;;;;;4.70;2.73;;;;;;;22.04;41.60;101514.22;5115320;28;20070;-75
2022/09/23 10:25:15;;;;;;;3.20;2.45;;;;;;;22.03;41.59;101513.38;5115372;28;20051;-75
2022/09/23 10:27:44;;;;;;;3.53;2.33;;;;;;;22.02;41.44;101508.97;5115124;28;20043;-75
2022/09/23 10:30:26;;;;;;;3.08;2.13;;;;;;;22.04;42.03;101508.81;5114963;28;20498;-76
2022/09/23 10:32:55;;;;;;;4.40;2.20;;;;;;;22.04;42.02;101507.00;5115530;28;20073;-75
2022/09/23 10:35:24;;;;;;;3.17;2.60;;;;;;;22.04;41.84;101503.44;5113495;28;20048;-75
2022/09/23 10:37:56;;;;;;;3.75;2.10;;;;;;;22.03;41.65;101497.19;5115240;28;20051;-75
2022/09/23 10:46:45;;;;;;;2.58;2.13;;;;;;;22.04;41.45;101488.13;5114687;28;20047;-75
2022/09/23 10:49:40;;;;;;;2.90;2.40;;;;;;;22.03;41.37;101491.81;5114952;28;20043;-75
2022/09/23 10:52:21;;;;;;;3.95;2.38;;;;;;;22.03;41.34;101486.41;5115011;28;20054;-75
2022/09/23 10:54:51;;;;;;;3.03;2.13;;;;;;;22.04;41.34;101493.53;5115227;28;20048;-75
2022/09/23 10:57:39;;;;;;;2.92;2.08;;;;;;;22.03;41.48;101486.41;5114883;28;20399;-75
2022/09/23 11:00:31;;;;;;;3.20;2.05;;;;;;;22.03;41.69;101486.41;5115002;28;20043;-75
2022/09/23 11:03:30;;;;;;;2.22;1.90;;;;;;;22.04;42.03;101490.84;5115057;28;20043;-76
2022/09/23 11:06:31;;;;;;;4.03;2.22;;;;;;;22.02;41.54;101490.09;5147435;27;20060;-74
2022/09/23 11:09:22;;;;;;;2.78;2.08;;;;;;;22.03;41.48;101480.16;5114438;28;20039;-74
2022/09/23 11:12:05;;;;;;;2.22;1.85;;;;;;;22.02;41.37;101473.91;5114317;28;20044;-75
2022/09/23 11:14:58;;;;;;;2.67;1.80;;;;;;;22.03;41.70;101475.63;5114056;28;20055;-74
2022/09/23 11:17:59;;;;;;;2.67;2.13;;;;;;;22.02;41.70;101465.84;5112394;28;20047;-74
2022/09/23 11:20:49;;;;;;;2.38;2.03;;;;;;;22.04;41.58;101463.00;5113385;28;20051;-74
2022/09/23 11:23:34;;;;;;;2.83;2.00;;;;;;;22.03;41.57;101454.06;5113014;28;20051;-74
2022/09/23 11:26:30;;;;;;;2.50;1.80;;;;;;;22.03;41.17;101454.06;5044430;28;20061;-75
2022/09/23 11:29:28;;;;;;;2.40;1.90;;;;;;;22.02;41.25;101446.97;5010863;28;20054;-74
2022/09/23 11:32:50;;;;;;;2.22;1.85;;;;;;;22.02;41.18;101446.97;5010017;28;20057;-74
2022/09/23 11:35:27;;;;;;;4.30;2.03;;;;;;;22.03;41.52;101439.72;4969549;28;20070;-74
2022/09/23 11:38:04;;;;;;;4.05;2.55;;;;;;;22.04;41.81;101441.41;4970115;28;20047;-74
2022/09/23 11:40:38;;;;;;;5.05;2.10;;;;;;;22.03;41.82;101437.88;4954323;28;20059;-75
2022/09/23 11:43:22;;;;;;;5.13;2.80;;;;;;;22.03;41.81;101435.19;4969780;28;20109;-75
2022/09/23 11:46:14;;;;;;;8.07;3.10;;;;;;;22.03;41.50;101424.41;4970205;28;20050;-75
2022/09/23 11:48:46;;;;;;;8.85;3.50;;;;;;;22.03;42.04;101424.41;4969511;28;20047;-75
2022/09/23 11:51:36;;;;;;;12.77;4.20;;;;;;;22.04;42.01;101434.22;4969968;28;20062;-75
2022/09/23 11:54:30;;;;;;;10.07;4.28;;;;;;;22.04;42.20;101427.94;4969873;28;20070;-74
2022/09/23 11:57:03;;;;;;;14.00;4.55;;;;;;;22.05;42.39;101421.59;4969550;28;20050;-75
2022/09/23 11:59:42;;;;;;;10.45;4.65;;;;;;;22.05;42.16;101426.97;4972108;28;20055;-74
2022/09/23 12:02:22;;;;;;;13.20;4.82;;;;;;;22.05;42.62;101422.44;4972808;28;20051;-74
2022/09/23 12:05:05;;;;;;;15.70;5.03;;;;;;;22.05;42.62;101417.03;4972838;28;20077;-75
2022/09/23 12:07:57;;;;;;;15.35;5.53;;;;;;;22.06;42.77;101415.19;5014204;28;20049;-74